Bern, Kansas
Current Conditions -  °F | °C
As of 9:53 AM on Monday 26 Jan 2015 (Local Time) from KFNB Reporting Station
Clear Clear  
Wind Chill: 34°   Ceiling: Unl
Heat Index: 41°   Visibility: 10mi
Dew Point: 32°   Wind: 12mph
Humidity: 70%   Direction: 270°W
Pressure: 29.92"   Gusts: NA
Location:  39.96°N, 95.97°W
Report Text: KFNB 261553Z AUTO 27010KT 10SM CLR 05/00 A2992 RMK AO2 SLP140 T00500000
Loading
Personal Weather Stations






























Interactive Weather Map New forecast layout! Learn more

10-Day Weather Forecast

Advertisements
Track Severe Weather on mobile